sensor_id;sensor_type;location;lat;lon;timestamp;temperature;humidity
75357;HTU21D;63946;51.986;5.930;2022-10-15T07:25:10;13.76;79.88
75357;HTU21D;63946;51.986;5.930;2022-10-15T07:27:41;13.80;79.88
75357;HTU21D;63946;51.986;5.930;2022-10-15T07:30:22;13.83;79.89
75357;HTU21D;63946;51.986;5.930;2022-10-15T07:32:52;13.88;79.95
75357;HTU21D;63946;51.986;5.930;2022-10-15T07:35:25;13.91;79.98
75357;HTU21D;63946;51.986;5.930;2022-10-15T07:38:07;13.94;79.98
75357;HTU21D;63946;51.986;5.930;2022-10-15T07:40:57;13.96;79.98
75357;HTU21D;63946;51.986;5.930;2022-10-15T07:43:32;13.96;80.07
75357;HTU21D;63946;51.986;5.930;2022-10-15T07:46:07;14.00;80.07
75357;HTU21D;63946;51.986;5.930;2022-10-15T07:48:40;14.04;80.01
75357;HTU21D;63946;51.986;5.930;2022-10-15T07:54:51;14.07;80.04
75357;HTU21D;63946;51.986;5.930;2022-10-15T07:57:41;14.11;79.91
75357;HTU21D;63946;51.986;5.930;2022-10-15T08:00:21;14.13;79.81
75357;HTU21D;63946;51.986;5.930;2022-10-15T08:03:23;14.19;79.66
75357;HTU21D;63946;51.986;5.930;2022-10-15T08:06:18;14.23;79.57
75357;HTU21D;63946;51.986;5.930;2022-10-15T08:09:09;14.27;79.44
75357;HTU21D;63946;51.986;5.930;2022-10-15T08:11:52;14.32;79.49
75357;HTU21D;63946;51.986;5.930;2022-10-15T08:14:38;14.43;79.37
75357;HTU21D;63946;51.986;5.930;2022-10-15T08:17:07;14.53;79.22
75357;HTU21D;63946;51.986;5.930;2022-10-15T08:19:38;14.57;79.08
75357;HTU21D;63946;51.986;5.930;2022-10-15T08:22:13;14.65;78.91
75357;HTU21D;63946;51.986;5.930;2022-10-15T08:27:36;14.77;78.89
75357;HTU21D;63946;51.986;5.930;2022-10-15T08:30:07;14.85;78.75
75357;HTU21D;63946;51.986;5.930;2022-10-15T08:32:36;14.87;78.78
75357;HTU21D;63946;51.986;5.930;2022-10-15T08:35:08;14.98;78.72
75357;HTU21D;63946;51.986;5.930;2022-10-15T08:37:37;15.12;78.70
75357;HTU21D;63946;51.986;5.930;2022-10-15T08:40:11;15.25;78.43
75357;HTU21D;63946;51.986;5.930;2022-10-15T08:42:53;15.30;78.11
75357;HTU21D;63946;51.986;5.930;2022-10-15T08:45:36;15.32;77.97
75357;HTU21D;63946;51.986;5.930;2022-10-15T08:48:17;15.37;78.04
75357;HTU21D;63946;51.986;5.930;2022-10-15T08:51:02;15.46;77.92
75357;HTU21D;63946;51.986;5.930;2022-10-15T08:53:53;15.56;77.84
75357;HTU21D;63946;51.986;5.930;2022-10-15T08:56:43;15.66;77.48
75357;HTU21D;63946;51.986;5.930;2022-10-15T09:01:58;15.56;77.21
75357;HTU21D;63946;51.986;5.930;2022-10-15T09:04:40;15.58;77.13
75357;HTU21D;63946;51.986;5.930;2022-10-15T09:07:35;15.48;77.05
75357;HTU21D;63946;51.986;5.930;2022-10-15T09:10:17;15.44;77.38
75357;HTU21D;63946;51.986;5.930;2022-10-15T09:12:59;15.51;77.44
75357;HTU21D;63946;51.986;5.930;2022-10-15T09:15:42;15.58;77.36
75357;HTU21D;63946;51.986;5.930;2022-10-15T09:18:22;15.69;77.31
75357;HTU21D;63946;51.986;5.930;2022-10-15T09:20:52;15.77;77.18
75357;HTU21D;63946;51.986;5.930;2022-10-15T09:23:27;15.85;77.11
75357;HTU21D;63946;51.986;5.930;2022-10-15T09:26:22;15.89;76.90
75357;HTU21D;63946;51.986;5.930;2022-10-15T09:46:33;16.15;76.07
75357;HTU21D;63946;51.986;5.930;2022-10-15T09:49:28;16.22;75.95
75357;HTU21D;63946;51.986;5.930;2022-10-15T09:52:23;16.27;75.99
75357;HTU21D;63946;51.986;5.930;2022-10-15T09:55:23;16.36;75.87
75357;HTU21D;63946;51.986;5.930;2022-10-15T10:04:44;16.26;75.79
75357;HTU21D;63946;51.986;5.930;2022-10-15T10:07:36;16.19;75.90
75357;HTU21D;63946;51.986;5.930;2022-10-15T10:11:09;16.10;75.96
75357;HTU21D;63946;51.986;5.930;2022-10-15T10:31:31;16.11;77.51
75357;HTU21D;63946;51.986;5.930;2022-10-15T10:34:36;16.10;77.69
75357;HTU21D;63946;51.986;5.930;2022-10-15T10:40:49;15.95;78.19
75357;HTU21D;63946;51.986;5.930;2022-10-15T10:47:27;15.82;78.63
75357;HTU21D;63946;51.986;5.930;2022-10-15T10:54:38;15.80;78.82
75357;HTU21D;63946;51.986;5.930;2022-10-15T10:58:28;15.76;78.88
75357;HTU21D;63946;51.986;5.930;2022-10-15T11:01:03;15.78;78.95
75357;HTU21D;63946;51.986;5.930;2022-10-15T11:03:45;15.77;78.99
75357;HTU21D;63946;51.986;5.930;2022-10-15T11:06:34;15.78;79.01
75357;HTU21D;63946;51.986;5.930;2022-10-15T12:07:32;16.05;80.23
75357;HTU21D;63946;51.986;5.930;2022-10-15T12:34:47;16.35;80.01
75357;HTU21D;63946;51.986;5.930;2022-10-15T12:37:39;16.39;80.10
75357;HTU21D;63946;51.986;5.930;2022-10-15T12:40:32;16.41;80.18
75357;HTU21D;63946;51.986;5.930;2022-10-15T13:15:32;16.96;79.53
75357;HTU21D;63946;51.986;5.930;2022-10-15T13:48:31;17.41;79.17
75357;HTU21D;63946;51.986;5.930;2022-10-15T13:51:32;17.44;79.20
75357;HTU21D;63946;51.986;5.930;2022-10-15T13:54:54;17.47;79.05
75357;HTU21D;63946;51.986;5.930;2022-10-15T13:57:35;17.49;78.94
75357;HTU21D;63946;51.986;5.930;2022-10-15T14:15:52;17.54;78.63
75357;HTU21D;63946;51.986;5.930;2022-10-15T14:26:07;17.26;78.52
75357;HTU21D;63946;51.986;5.930;2022-10-15T15:18:20;17.07;77.73
75357;HTU21D;63946;51.986;5.930;2022-10-15T15:25:16;17.03;77.66
75357;HTU21D;63946;51.986;5.930;2022-10-15T15:28:42;17.02;77.36
75357;HTU21D;63946;51.986;5.930;2022-10-15T15:31:20;17.00;77.37
75357;HTU21D;63946;51.986;5.930;2022-10-15T15:34:18;16.95;77.44
75357;HTU21D;63946;51.986;5.930;2022-10-15T15:37:44;16.92;77.34
75357;HTU21D;63946;51.986;5.930;2022-10-15T15:41:29;16.88;77.35
75357;HTU21D;63946;51.986;5.930;2022-10-15T15:43:57;16.80;77.11
75357;HTU21D;63946;51.986;5.930;2022-10-15T15:47:11;16.76;77.17
75357;HTU21D;63946;51.986;5.930;2022-10-15T15:50:30;16.71;76.91
75357;HTU21D;63946;51.986;5.930;2022-10-15T15:53:23;16.65;76.89
75357;HTU21D;63946;51.986;5.930;2022-10-15T15:56:14;16.64;76.92
75357;HTU21D;63946;51.986;5.930;2022-10-15T16:02:41;16.54;77.02
75357;HTU21D;63946;51.986;5.930;2022-10-15T16:09:40;16.42;76.84
75357;HTU21D;63946;51.986;5.930;2022-10-15T16:13:09;16.35;76.94
75357;HTU21D;63946;51.986;5.930;2022-10-15T16:16:30;16.29;77.03
75357;HTU21D;63946;51.986;5.930;2022-10-15T16:26:12;16.12;77.21
75357;HTU21D;63946;51.986;5.930;2022-10-15T16:29:28;16.06;77.18
75357;HTU21D;63946;51.986;5.930;2022-10-15T16:36:46;15.91;77.10
75357;HTU21D;63946;51.986;5.930;2022-10-15T16:40:09;15.81;77.00
75357;HTU21D;63946;51.986;5.930;2022-10-15T16:43:15;15.74;76.98
75357;HTU21D;63946;51.986;5.930;2022-10-15T17:38:25;14.36;77.76
75357;HTU21D;63946;51.986;5.930;2022-10-15T17:48:41;14.21;77.79
75357;HTU21D;63946;51.986;5.930;2022-10-15T17:51:32;14.15;77.86
75357;HTU21D;63946;51.986;5.930;2022-10-15T17:54:24;14.13;77.95
75357;HTU21D;63946;51.986;5.930;2022-10-15T17:57:46;14.12;77.90
75357;HTU21D;63946;51.986;5.930;2022-10-15T18:01:24;14.10;77.75
75357;HTU21D;63946;51.986;5.930;2022-10-15T18:08:30;14.06;77.68
75357;HTU21D;63946;51.986;5.930;2022-10-15T18:11:11;14.03;77.71
75357;HTU21D;63946;51.986;5.930;2022-10-15T18:14:07;13.99;77.74
75357;HTU21D;63946;51.986;5.930;2022-10-15T18:17:40;13.96;77.71
75357;HTU21D;63946;51.986;5.930;2022-10-15T18:35:35;13.75;77.73
75357;HTU21D;63946;51.986;5.930;2022-10-15T18:38:28;13.70;77.94
75357;HTU21D;63946;51.986;5.930;2022-10-15T18:41:36;13.71;77.89
75357;HTU21D;63946;51.986;5.930;2022-10-15T18:44:17;13.71;77.85
75357;HTU21D;63946;51.986;5.930;2022-10-15T18:47:20;13.70;77.87
75357;HTU21D;63946;51.986;5.930;2022-10-15T18:54:20;13.68;77.79
75357;HTU21D;63946;51.986;5.930;2022-10-15T18:57:37;13.69;77.79
75357;HTU21D;63946;51.986;5.930;2022-10-15T19:12:12;13.62;77.82
75357;HTU21D;63946;51.986;5.930;2022-10-15T19:26:48;13.52;77.82
75357;HTU21D;63946;51.986;5.930;2022-10-15T19:30:19;13.46;78.12
75357;HTU21D;63946;51.986;5.930;2022-10-15T19:33:39;13.48;78.06
75357;HTU21D;63946;51.986;5.930;2022-10-15T19:37:16;13.48;77.95
75357;HTU21D;63946;51.986;5.930;2022-10-15T19:44:07;13.43;78.05
75357;HTU21D;63946;51.986;5.930;2022-10-15T19:47:14;13.43;78.16
75357;HTU21D;63946;51.986;5.930;2022-10-15T19:49:56;13.44;78.08
75357;HTU21D;63946;51.986;5.930;2022-10-15T19:56:09;13.41;78.07
75357;HTU21D;63946;51.986;5.930;2022-10-15T19:58:41;13.41;78.09
75357;HTU21D;63946;51.986;5.930;2022-10-15T20:01:13;13.41;78.09
75357;HTU21D;63946;51.986;5.930;2022-10-15T20:04:02;13.43;78.05
75357;HTU21D;63946;51.986;5.930;2022-10-15T20:06:47;13.46;78.18
75357;HTU21D;63946;51.986;5.930;2022-10-15T20:09:20;13.47;78.05
75357;HTU21D;63946;51.986;5.930;2022-10-15T20:11:56;13.46;77.93
75357;HTU21D;63946;51.986;5.930;2022-10-15T20:14:27;13.41;78.12
75357;HTU21D;63946;51.986;5.930;2022-10-15T20:17:18;13.43;78.11
75357;HTU21D;63946;51.986;5.930;2022-10-15T20:19:58;13.44;78.07
75357;HTU21D;63946;51.986;5.930;2022-10-15T20:22:30;13.45;78.05
75357;HTU21D;63946;51.986;5.930;2022-10-15T20:25:05;13.45;78.07
75357;HTU21D;63946;51.986;5.930;2022-10-15T20:27:36;13.44;78.07
75357;HTU21D;63946;51.986;5.930;2022-10-15T20:30:13;13.45;78.11
75357;HTU21D;63946;51.986;5.930;2022-10-15T20:32:53;13.46;78.05
75357;HTU21D;63946;51.986;5.930;2022-10-15T20:35:22;13.48;77.98
75357;HTU21D;63946;51.986;5.930;2022-10-15T20:38:02;13.46;78.00
75357;HTU21D;63946;51.986;5.930;2022-10-15T20:40:38;13.52;77.79
75357;HTU21D;63946;51.986;5.930;2022-10-15T20:43:15;13.59;77.69
75357;HTU21D;63946;51.986;5.930;2022-10-15T20:45:57;13.63;77.65
75357;HTU21D;63946;51.986;5.930;2022-10-15T20:48:33;13.69;77.50
75357;HTU21D;63946;51.986;5.930;2022-10-15T20:51:10;13.75;77.38
75357;HTU21D;63946;51.986;5.930;2022-10-15T20:53:45;13.79;77.17
75357;HTU21D;63946;51.986;5.930;2022-10-15T20:56:25;13.82;77.06
75357;HTU21D;63946;51.986;5.930;2022-10-15T20:58:56;13.86;76.93
75357;HTU21D;63946;51.986;5.930;2022-10-15T21:01:26;13.86;76.92
75357;HTU21D;63946;51.986;5.930;2022-10-15T21:04:01;13.90;76.74
